createdAt,value
2023-02-26T00:01:14.608Z,100.00
2023-02-26T00:03:42.357Z,100.00
2023-02-26T00:06:10.476Z,100.00
2023-02-26T00:08:38.125Z,100.00
2023-02-26T00:11:08.004Z,100.00
2023-02-26T00:13:37.140Z,100.00
2023-02-26T00:16:18.302Z,100.00
2023-02-26T00:18:46.216Z,100.00
2023-02-26T00:21:17.112Z,100.00
2023-02-26T00:23:44.916Z,100.00
2023-02-26T00:26:12.330Z,100.00
2023-02-26T00:28:40.583Z,100.00
2023-02-26T00:31:10.824Z,100.00
2023-02-26T00:33:39.014Z,100.00
2023-02-26T00:36:20.229Z,100.00
2023-02-26T00:38:58.322Z,100.00
2023-02-26T00:41:26.418Z,100.00
2023-02-26T00:43:54.321Z,100.00
2023-02-26T00:46:30.080Z,100.00
2023-02-26T00:49:07.050Z,100.00
2023-02-26T00:51:43.669Z,100.00
2023-02-26T00:54:18.138Z,100.00
2023-02-26T00:56:45.534Z,100.00
2023-02-26T00:59:12.946Z,100.00
2023-02-26T01:01:41.883Z,100.00
2023-02-26T01:04:10.566Z,100.00
2023-02-26T01:06:44.460Z,100.00
2023-02-26T01:09:23.168Z,100.00
2023-02-26T01:11:51.512Z,100.00
2023-02-26T01:14:20.067Z,100.00
2023-02-26T01:16:57.491Z,100.00
2023-02-26T01:19:32.025Z,100.00
2023-02-26T01:22:08.336Z,100.00
2023-02-26T01:24:37.544Z,100.00
2023-02-26T01:27:05.968Z,100.00
2023-02-26T01:29:34.267Z,100.00
2023-02-26T01:32:09.512Z,100.00
2023-02-26T01:34:43.030Z,100.00
2023-02-26T01:37:21.531Z,100.00
2023-02-26T01:40:02.273Z,100.00
2023-02-26T01:42:32.605Z,100.00
2023-02-26T01:45:04.037Z,100.00
2023-02-26T01:47:40.407Z,100.00
2023-02-26T01:50:13.839Z,100.00
2023-02-26T01:53:23.970Z,100.00
2023-02-26T01:55:58.017Z,100.00
2023-02-26T01:58:28.573Z,100.00
2023-02-26T02:00:56.166Z,100.00
2023-02-26T02:03:27.871Z,100.00
2023-02-26T02:05:59.786Z,99.61
2023-02-26T02:08:27.489Z,99.88
2023-02-26T02:10:55.190Z,100.00
2023-02-26T02:13:36.725Z,100.00
2023-02-26T02:16:18.107Z,100.00
2023-02-26T02:18:56.774Z,100.00
2023-02-26T02:21:48.045Z,100.00
2023-02-26T02:24:22.641Z,100.00
2023-02-26T02:27:01.438Z,100.00
2023-02-26T02:29:54.814Z,99.59
2023-02-26T02:32:28.722Z,98.64
2023-02-26T02:35:04.436Z,98.68
2023-02-26T02:37:37.667Z,98.64
2023-02-26T02:40:11.479Z,98.59
2023-02-26T02:42:44.046Z,98.88
2023-02-26T02:45:15.751Z,99.09
2023-02-26T02:47:48.193Z,99.77
2023-02-26T02:50:20.684Z,99.87
2023-02-26T02:52:52.960Z,100.00
2023-02-26T02:55:25.918Z,99.55
2023-02-26T02:58:00.580Z,100.00
2023-02-26T03:00:30.909Z,100.00
2023-02-26T03:03:05.501Z,100.00
2023-02-26T03:05:33.015Z,100.00
2023-02-26T03:08:04.330Z,100.00
2023-02-26T03:10:32.229Z,100.00
2023-02-26T03:12:59.813Z,100.00
2023-02-26T03:15:36.230Z,100.00
2023-02-26T03:18:13.956Z,100.00
2023-02-26T03:20:48.571Z,100.00
2023-02-26T03:23:23.663Z,100.00
2023-02-26T03:25:56.228Z,100.00
2023-02-26T03:28:28.696Z,100.00
2023-02-26T03:31:03.417Z,100.00
2023-02-26T03:33:43.350Z,100.00
2023-02-26T03:36:19.518Z,100.00
2023-02-26T03:38:51.270Z,99.30
2023-02-26T03:41:25.621Z,99.08
2023-02-26T03:43:58.265Z,98.73
2023-02-26T03:46:34.473Z,98.47
2023-02-26T03:49:10.673Z,99.02
2023-02-26T03:51:41.432Z,98.65
2023-02-26T03:54:14.487Z,98.18
2023-02-26T03:56:46.328Z,98.42
2023-02-26T03:59:16.110Z,98.49
2023-02-26T04:01:48.698Z,97.83
2023-02-26T04:04:22.852Z,97.62
2023-02-26T04:06:53.489Z,97.60
2023-02-26T04:09:21.862Z,96.56
2023-02-26T04:11:52.248Z,96.66
2023-02-26T04:14:19.900Z,96.86
2023-02-26T04:16:48.199Z,96.97
2023-02-26T04:19:16.937Z,96.51
2023-02-26T04:21:44.484Z,97.06
2023-02-26T04:24:12.372Z,97.39
2023-02-26T04:26:39.688Z,97.21
2023-02-26T04:29:07.135Z,96.24
2023-02-26T04:31:34.747Z,96.15
2023-02-26T04:34:02.213Z,94.54
2023-02-26T04:36:31.353Z,95.33
2023-02-26T04:38:59.868Z,94.11
2023-02-26T04:41:27.427Z,93.80
2023-02-26T04:43:54.867Z,93.67
2023-02-26T04:46:22.441Z,93.07
2023-02-26T04:48:49.844Z,93.61
2023-02-26T04:51:18.044Z,92.27
2023-02-26T04:53:46.796Z,92.32
2023-02-26T04:56:14.289Z,93.60
2023-02-26T04:58:41.835Z,93.07
2023-02-26T05:01:09.268Z,92.42
2023-02-26T05:03:36.701Z,92.21
2023-02-26T05:06:04.187Z,93.06
2023-02-26T05:08:31.718Z,92.38
2023-02-26T05:11:00.553Z,92.51
2023-02-26T05:13:27.944Z,91.89
2023-02-26T05:15:55.600Z,92.43
2023-02-26T05:18:23.100Z,93.51
2023-02-26T05:20:54.515Z,93.46
2023-02-26T05:23:22.465Z,93.05
2023-02-26T05:25:49.896Z,92.76
2023-02-26T05:28:18.790Z,93.59
2023-02-26T05:30:46.233Z,93.05
2023-02-26T05:33:13.620Z,93.61
2023-02-26T05:35:41.302Z,93.33
2023-02-26T05:38:08.763Z,92.19
2023-02-26T05:40:36.526Z,92.25
2023-02-26T05:43:04.277Z,92.57
2023-02-26T05:45:33.019Z,92.84
2023-02-26T05:48:00.409Z,91.89
2023-02-26T05:50:28.113Z,91.73
2023-02-26T05:52:55.612Z,92.27
2023-02-26T05:55:23.198Z,92.00
2023-02-26T05:57:50.600Z,92.09
2023-02-26T06:00:18.841Z,93.32
2023-02-26T06:02:47.585Z,93.88
2023-02-26T06:05:15.096Z,93.92
2023-02-26T06:07:42.690Z,93.22
2023-02-26T06:10:12.058Z,93.44
2023-02-26T06:12:39.511Z,92.67
2023-02-26T06:15:08.456Z,93.14
2023-02-26T06:17:36.169Z,92.99
2023-02-26T06:20:05.472Z,92.77
2023-02-26T06:22:32.979Z,91.96
2023-02-26T06:25:00.421Z,91.70
2023-02-26T06:27:27.945Z,91.43
2023-02-26T06:29:55.332Z,92.15
2023-02-26T06:32:22.840Z,92.08
2023-02-26T06:34:50.404Z,92.11
2023-02-26T06:37:19.164Z,92.67
2023-02-26T06:39:46.545Z,91.79
2023-02-26T06:42:13.943Z,92.06
2023-02-26T06:44:41.474Z,92.02
2023-02-26T06:47:08.971Z,92.23
2023-02-26T06:49:36.368Z,91.39
2023-02-26T06:52:03.791Z,92.00
2023-02-26T06:54:32.878Z,91.62
2023-02-26T06:57:02.817Z,91.93
2023-02-26T06:59:30.265Z,91.28
2023-02-26T07:01:57.981Z,90.88
2023-02-26T07:04:25.431Z,91.55
2023-02-26T07:06:52.807Z,91.01
2023-02-26T07:09:20.860Z,90.53
2023-02-26T07:11:49.905Z,90.13
2023-02-26T07:14:17.423Z,89.79
2023-02-26T07:16:44.843Z,90.10
2023-02-26T07:19:12.261Z,90.56
2023-02-26T07:21:39.869Z,89.86
2023-02-26T07:24:08.339Z,88.91
2023-02-26T07:26:36.142Z,89.25
2023-02-26T07:29:04.942Z,89.06
2023-02-26T07:31:33.074Z,89.58
2023-02-26T07:34:00.582Z,89.20
2023-02-26T07:36:28.234Z,89.98
2023-02-26T07:38:55.802Z,90.15
2023-02-26T07:41:23.712Z,89.87
2023-02-26T07:43:51.086Z,90.14
2023-02-26T07:46:19.845Z,89.77
2023-02-26T07:48:47.321Z,89.90
2023-02-26T07:51:14.959Z,89.24
2023-02-26T07:53:42.371Z,88.61
2023-02-26T07:56:10.082Z,88.51
2023-02-26T07:58:37.498Z,89.10
2023-02-26T08:01:05.433Z,89.57
2023-02-26T08:03:34.157Z,91.19
2023-02-26T08:06:01.617Z,90.87
2023-02-26T08:08:28.957Z,90.46
2023-02-26T08:10:56.313Z,90.32
2023-02-26T08:13:23.698Z,89.82
2023-02-26T08:15:51.177Z,89.78
2023-02-26T08:18:18.571Z,90.09
2023-02-26T08:20:47.536Z,90.37
2023-02-26T08:23:14.879Z,89.85
2023-02-26T08:25:42.296Z,90.07
2023-02-26T08:28:09.675Z,90.10
2023-02-26T08:30:37.102Z,89.58
2023-02-26T08:33:04.649Z,89.84
2023-02-26T08:35:32.233Z,89.80
2023-02-26T08:38:00.958Z,89.57
2023-02-26T08:40:28.335Z,89.66
2023-02-26T08:42:55.705Z,89.60
2023-02-26T08:45:23.132Z,89.50
2023-02-26T08:47:56.805Z,89.77
2023-02-26T08:50:25.442Z,89.14
2023-02-26T08:52:52.939Z,87.89
2023-02-26T08:55:22.029Z,88.72
2023-02-26T08:57:49.536Z,87.46
2023-02-26T09:00:18.522Z,87.11
2023-02-26T09:02:46.500Z,87.18
2023-02-26T09:05:14.916Z,87.46
2023-02-26T09:07:42.926Z,86.09
2023-02-26T09:10:10.964Z,85.69
2023-02-26T09:12:39.689Z,86.62
2023-02-26T09:15:09.198Z,86.44
2023-02-26T09:17:36.902Z,85.57
2023-02-26T09:20:05.920Z,84.69
2023-02-26T09:22:33.446Z,84.78
2023-02-26T09:25:01.049Z,84.13
2023-02-26T09:27:28.578Z,84.54
2023-02-26T09:29:57.336Z,82.26
2023-02-26T09:32:26.772Z,83.01
2023-02-26T09:34:54.300Z,81.89
2023-02-26T09:37:21.690Z,82.20
2023-02-26T09:39:49.133Z,82.37
2023-02-26T09:42:30.451Z,81.04
2023-02-26T09:45:00.583Z,80.68
2023-02-26T09:47:31.131Z,80.45
2023-02-26T09:50:05.918Z,80.78
2023-02-26T09:52:38.430Z,80.81
2023-02-26T09:55:13.249Z,81.01
2023-02-26T09:57:44.446Z,80.05
2023-02-26T10:00:25.087Z,82.25
2023-02-26T10:03:00.548Z,80.12
2023-02-26T10:05:38.917Z,77.83
2023-02-26T10:08:12.377Z,79.79
2023-02-26T10:10:50.451Z,77.04
2023-02-26T10:13:26.391Z,78.05
2023-02-26T10:16:01.017Z,77.27
2023-02-26T10:18:34.443Z,78.53
2023-02-26T10:21:08.317Z,79.55
2023-02-26T10:23:43.817Z,77.81
2023-02-26T10:26:15.499Z,78.80
2023-02-26T10:28:54.654Z,78.75
2023-02-26T10:31:30.885Z,79.48
2023-02-26T10:34:10.153Z,79.05
2023-02-26T10:36:46.282Z,78.25
2023-02-26T10:39:25.211Z,77.08
2023-02-26T10:41:53.634Z,78.22
2023-02-26T10:44:26.461Z,77.71
2023-02-26T10:47:04.512Z,77.06
2023-02-26T10:49:51.482Z,75.93
2023-02-26T10:52:20.861Z,75.25
2023-02-26T10:55:01.990Z,76.49
2023-02-26T10:57:33.108Z,75.62
2023-02-26T11:00:01.150Z,72.74
2023-02-26T11:02:35.612Z,71.43
2023-02-26T11:05:07.848Z,72.48
2023-02-26T11:07:38.698Z,70.97
2023-02-26T11:10:15.546Z,71.78
2023-02-26T11:12:43.120Z,72.14
2023-02-26T11:15:14.948Z,72.60
2023-02-26T11:17:44.625Z,73.64
2023-02-26T11:20:20.220Z,72.56
2023-02-26T11:22:50.614Z,72.46
2023-02-26T11:25:24.029Z,71.71
2023-02-26T11:27:56.686Z,72.40
2023-02-26T11:30:28.426Z,70.43
2023-02-26T11:33:04.621Z,67.50
2023-02-26T11:35:32.112Z,68.11
2023-02-26T11:38:01.850Z,69.69
2023-02-26T11:40:35.797Z,70.36
2023-02-26T11:43:07.497Z,71.59
2023-02-26T11:45:37.602Z,72.64
2023-02-26T11:48:08.488Z,73.36
2023-02-26T11:50:43.327Z,70.67
2023-02-26T11:53:18.408Z,70.78
2023-02-26T11:55:48.951Z,72.02
2023-02-26T11:58:20.058Z,70.69
2023-02-26T12:00:48.528Z,70.82
2023-02-26T12:03:21.625Z,72.50
2023-02-26T12:05:49.254Z,70.38
2023-02-26T12:08:28.289Z,71.38
2023-02-26T12:11:30.734Z,72.84
2023-02-26T12:14:09.708Z,72.43
2023-02-26T12:16:46.724Z,72.44
2023-02-26T12:19:23.873Z,73.37
2023-02-26T12:22:05.778Z,72.28
2023-02-26T12:24:45.812Z,70.54
2023-02-26T12:27:24.638Z,70.45
2023-02-26T12:30:08.083Z,71.34
2023-02-26T12:32:58.752Z,70.33
2023-02-26T12:35:43.412Z,69.36
2023-02-26T12:38:20.991Z,70.13
2023-02-26T12:41:10.181Z,70.39
2023-02-26T12:43:46.325Z,69.82
2023-02-26T12:46:25.469Z,70.10
2023-02-26T12:49:07.604Z,70.40
2023-02-26T12:51:49.124Z,71.22
2023-02-26T12:54:35.390Z,72.15
2023-02-26T12:57:31.516Z,71.48
2023-02-26T13:00:17.134Z,71.32
2023-02-26T13:03:14.814Z,72.84
2023-02-26T13:05:58.976Z,71.45
2023-02-26T13:08:33.450Z,73.15
2023-02-26T13:11:12.072Z,72.58
2023-02-26T13:13:56.043Z,72.47
2023-02-26T13:16:34.491Z,72.77
2023-02-26T13:19:09.456Z,72.36
2023-02-26T13:21:40.175Z,72.49
2023-02-26T13:24:15.270Z,72.07
2023-02-26T13:26:43.630Z,71.58
2023-02-26T13:29:15.839Z,71.06
2023-02-26T13:31:46.627Z,71.51
2023-02-26T13:34:19.976Z,71.31
2023-02-26T13:36:48.752Z,71.78
2023-02-26T13:39:33.463Z,73.33
2023-02-26T13:42:09.707Z,72.67
2023-02-26T13:44:47.375Z,72.68
2023-02-26T13:47:35.687Z,73.10
2023-02-26T13:50:17.076Z,73.37
2023-02-26T13:52:53.752Z,72.54
2023-02-26T13:55:45.473Z,71.91
2023-02-26T13:58:30.385Z,71.15
2023-02-26T14:01:07.996Z,77.42
2023-02-26T14:03:37.485Z,81.05
2023-02-26T14:06:26.645Z,82.98
2023-02-26T14:08:58.644Z,84.17
2023-02-26T14:11:46.948Z,84.76
2023-02-26T14:14:20.256Z,83.03
2023-02-26T14:16:54.160Z,82.39
2023-02-26T14:19:30.276Z,83.71
2023-02-26T14:22:02.625Z,83.01
2023-02-26T14:24:37.294Z,83.71
2023-02-26T14:27:22.924Z,83.42
2023-02-26T14:30:01.506Z,82.65
2023-02-26T14:32:32.467Z,81.98
2023-02-26T14:35:06.415Z,81.87
2023-02-26T14:37:37.203Z,81.60
2023-02-26T14:40:09.775Z,82.31
2023-02-26T14:42:45.025Z,82.25
2023-02-26T14:45:27.408Z,81.73
2023-02-26T14:47:56.337Z,80.44
2023-02-26T14:50:24.804Z,78.96
2023-02-26T14:53:08.798Z,75.31
2023-02-26T14:55:46.632Z,73.22
2023-02-26T14:58:22.503Z,73.50
2023-02-26T15:00:54.227Z,71.06
2023-02-26T15:03:53.348Z,71.44
2023-02-26T15:06:42.166Z,80.78
2023-02-26T15:09:18.938Z,89.39
2023-02-26T15:12:06.995Z,93.45
2023-02-26T15:15:09.058Z,95.12
2023-02-26T15:17:48.349Z,95.16
2023-02-26T15:20:27.257Z,94.83
2023-02-26T15:23:11.243Z,92.05
2023-02-26T15:25:41.960Z,90.91
2023-02-26T15:28:15.508Z,88.91
2023-02-26T15:30:49.348Z,88.95
2023-02-26T15:33:20.466Z,88.17
2023-02-26T15:35:50.394Z,88.70
2023-02-26T15:38:17.855Z,89.51
2023-02-26T15:40:46.159Z,90.54
2023-02-26T15:43:17.605Z,90.63
2023-02-26T15:45:49.116Z,91.27
2023-02-26T15:48:19.858Z,91.62
2023-02-26T15:50:51.066Z,91.52
2023-02-26T15:53:29.392Z,91.54
2023-02-26T15:55:58.767Z,90.92
2023-02-26T15:58:36.795Z,90.39
2023-02-26T16:01:07.369Z,89.85
2023-02-26T16:03:37.128Z,89.78
2023-02-26T16:06:05.539Z,90.50
2023-02-26T16:08:33.137Z,90.18
2023-02-26T16:11:02.441Z,88.38
2023-02-26T16:13:33.404Z,88.18
2023-02-26T16:16:04.036Z,86.08
2023-02-26T16:18:34.976Z,84.87
2023-02-26T16:21:06.224Z,84.53
2023-02-26T16:23:43.816Z,85.24
2023-02-26T16:26:28.237Z,84.44
2023-02-26T16:29:01.253Z,84.84
2023-02-26T16:31:30.869Z,83.87
2023-02-26T16:34:02.756Z,82.71
2023-02-26T16:36:32.967Z,83.50
2023-02-26T16:39:09.810Z,84.53
2023-02-26T16:41:40.226Z,84.85
2023-02-26T16:44:41.123Z,86.86
2023-02-26T16:47:10.788Z,82.96
2023-02-26T16:49:42.560Z,84.24
2023-02-26T16:52:17.043Z,84.06
2023-02-26T16:54:53.832Z,83.57
2023-02-26T16:57:26.492Z,85.62
2023-02-26T16:59:56.906Z,87.03
2023-02-26T17:02:30.576Z,87.49
2023-02-26T17:05:03.204Z,87.00
2023-02-26T17:07:33.112Z,87.52
2023-02-26T17:10:06.378Z,87.59
2023-02-26T17:12:43.946Z,87.58
2023-02-26T17:15:18.508Z,87.60
2023-02-26T17:17:46.137Z,88.49
2023-02-26T17:20:16.380Z,88.83
2023-02-26T17:22:45.525Z,88.33
2023-02-26T17:25:18.471Z,88.09
2023-02-26T17:27:46.891Z,88.55
2023-02-26T17:30:19.614Z,87.55
2023-02-26T17:32:47.317Z,84.38
2023-02-26T17:35:17.772Z,82.12
2023-02-26T17:37:47.165Z,82.60
2023-02-26T17:40:21.845Z,82.86
2023-02-26T17:42:49.574Z,83.40
2023-02-26T17:45:17.429Z,84.09
2023-02-26T17:47:47.380Z,83.12
2023-02-26T17:50:24.817Z,83.34
2023-02-26T17:52:52.259Z,84.82
2023-02-26T17:55:19.651Z,85.16
2023-02-26T17:57:47.408Z,86.22
2023-02-26T18:00:16.980Z,85.89
2023-02-26T18:02:44.614Z,86.21
2023-02-26T18:05:12.491Z,86.94
2023-02-26T18:07:43.560Z,87.11
2023-02-26T18:10:19.056Z,87.11
2023-02-26T18:12:46.819Z,87.97
2023-02-26T18:15:15.401Z,88.24
2023-02-26T18:17:44.103Z,88.22
2023-02-26T18:20:18.881Z,88.54
2023-02-26T18:22:48.725Z,88.45
2023-02-26T18:25:17.062Z,87.63
2023-02-26T18:27:45.426Z,87.66
2023-02-26T18:30:22.948Z,87.14
2023-02-26T18:32:50.903Z,87.24
2023-02-26T18:35:18.533Z,88.94
2023-02-26T18:37:47.620Z,88.99
2023-02-26T18:40:17.769Z,89.45
2023-02-26T18:42:45.328Z,89.73
2023-02-26T18:45:12.862Z,90.14
2023-02-26T18:47:40.758Z,90.35
2023-02-26T18:50:09.271Z,90.62
2023-02-26T18:52:36.686Z,90.15
2023-02-26T18:55:09.567Z,90.46
2023-02-26T18:57:36.949Z,90.74
2023-02-26T19:00:05.537Z,91.37
2023-02-26T19:02:34.130Z,91.52
2023-02-26T19:05:03.526Z,91.85
2023-02-26T19:07:31.204Z,92.40
2023-02-26T19:09:58.602Z,92.48
2023-02-26T19:12:27.283Z,92.57
2023-02-26T19:14:56.581Z,92.81
2023-02-26T19:17:23.986Z,93.02
2023-02-26T19:19:54.488Z,93.63
2023-02-26T19:22:22.104Z,93.79
2023-02-26T19:24:49.539Z,93.57
2023-02-26T19:27:17.338Z,93.33
2023-02-26T19:29:46.159Z,93.34
2023-02-26T19:32:14.049Z,93.56
2023-02-26T19:34:41.398Z,94.83
2023-02-26T19:37:10.578Z,94.69
2023-02-26T19:39:38.232Z,94.04
2023-02-26T19:42:06.343Z,92.48
2023-02-26T19:44:33.726Z,91.12
2023-02-26T19:47:03.102Z,90.50
2023-02-26T19:49:30.800Z,89.84
2023-02-26T19:51:58.371Z,89.55
2023-02-26T19:54:26.280Z,89.12
2023-02-26T19:56:53.890Z,89.34
2023-02-26T19:59:21.352Z,89.31
2023-02-26T20:01:49.618Z,89.97
2023-02-26T20:04:18.943Z,86.77
2023-02-26T20:06:46.552Z,87.28
2023-02-26T20:09:14.585Z,88.28
2023-02-26T20:11:42.417Z,88.66
2023-02-26T20:14:10.563Z,89.67
2023-02-26T20:16:38.064Z,88.94
2023-02-26T20:19:05.539Z,88.21
2023-02-26T20:21:34.321Z,86.92
2023-02-26T20:24:01.753Z,85.91
2023-02-26T20:26:29.241Z,83.68
2023-02-26T20:28:56.581Z,84.14
2023-02-26T20:31:24.034Z,83.72
2023-02-26T20:33:55.778Z,85.22
2023-02-26T20:36:23.435Z,83.98
2023-02-26T20:38:52.548Z,85.31
2023-02-26T20:41:19.924Z,85.54
2023-02-26T20:43:48.313Z,85.57
2023-02-26T20:46:15.725Z,85.53
2023-02-26T20:48:44.043Z,86.51
2023-02-26T20:51:12.391Z,87.51
2023-02-26T20:53:40.633Z,88.18
2023-02-26T20:56:09.700Z,85.51
2023-02-26T20:58:39.405Z,84.94
2023-02-26T21:01:07.431Z,83.63
2023-02-26T21:03:34.905Z,83.44
2023-02-26T21:06:02.353Z,83.27
2023-02-26T21:08:29.721Z,83.39
2023-02-26T21:10:57.900Z,84.05
2023-02-26T21:13:26.587Z,84.39
2023-02-26T21:15:53.994Z,84.47
2023-02-26T21:18:21.938Z,84.14
2023-02-26T21:20:49.852Z,84.19
2023-02-26T21:23:18.394Z,84.66
2023-02-26T21:25:45.766Z,84.27
2023-02-26T21:28:13.155Z,85.05
2023-02-26T21:30:41.875Z,84.57
2023-02-26T21:33:09.294Z,82.29
2023-02-26T21:35:36.741Z,82.33
2023-02-26T21:38:04.680Z,83.99
2023-02-26T21:40:32.751Z,83.67
2023-02-26T21:43:00.121Z,84.16
2023-02-26T22:02:25.653Z,83.01
2023-02-26T22:04:53.226Z,83.07
2023-02-26T22:07:20.700Z,81.84
2023-02-26T22:09:48.958Z,81.94
2023-02-26T22:12:17.270Z,81.88
2023-02-26T22:14:44.877Z,82.58
2023-02-26T22:17:12.556Z,82.21
2023-02-26T22:19:41.345Z,81.85
2023-02-26T22:22:09.370Z,82.33
2023-02-26T22:24:37.212Z,81.86
2023-02-26T22:27:04.952Z,82.94
2023-02-26T22:29:32.462Z,82.67
2023-02-26T22:32:00.147Z,83.26
2023-02-26T22:34:27.976Z,80.68
2023-02-26T22:36:56.834Z,81.44
2023-02-26T22:39:24.237Z,82.25
2023-02-26T22:41:51.995Z,82.64
2023-02-26T22:44:19.934Z,82.89
2023-02-26T22:46:49.308Z,81.83
2023-02-26T22:49:16.718Z,82.67
2023-02-26T22:51:44.133Z,82.38
2023-02-26T22:54:13.202Z,83.11
2023-02-26T22:56:40.905Z,83.75
2023-02-26T22:59:08.360Z,84.97
2023-02-26T23:01:35.809Z,85.20
2023-02-26T23:04:03.785Z,85.33
2023-02-26T23:06:31.375Z,85.48
2023-02-26T23:08:58.763Z,86.12
2023-02-26T23:11:27.828Z,86.08
2023-02-26T23:13:55.611Z,86.18
2023-02-26T23:16:23.060Z,86.87
2023-02-26T23:18:50.542Z,87.22
2023-02-26T23:21:17.987Z,87.51
2023-02-26T23:23:45.490Z,88.32
2023-02-26T23:26:13.549Z,88.45
2023-02-26T23:28:42.531Z,88.77
2023-02-26T23:31:10.147Z,89.09
2023-02-26T23:33:37.616Z,89.66
2023-02-26T23:36:05.487Z,87.95
2023-02-26T23:38:32.796Z,87.73
2023-02-26T23:41:00.278Z,87.43
2023-02-26T23:43:28.846Z,87.66
2023-02-26T23:45:57.813Z,88.35
2023-02-26T23:48:25.654Z,87.64
2023-02-26T23:50:53.088Z,87.35
2023-02-26T23:53:21.149Z,87.38
2023-02-26T23:55:51.137Z,88.16
2023-02-26T23:58:18.680Z,87.52
